sensor_id;sensor_type;location;lat;lon;timestamp;P1;durP1;ratioP1;P2;durP2;ratioP2
18702;SDS011;9481;48.796;9.210;2022-09-09T00:10:32;1.50;;;1.03;;
18702;SDS011;9481;48.796;9.210;2022-09-09T00:13:25;1.60;;;0.90;;
18702;SDS011;9481;48.796;9.210;2022-09-09T00:21:12;3.47;;;1.10;;
18702;SDS011;9481;48.796;9.210;2022-09-09T00:23:53;4.00;;;1.43;;
18702;SDS011;9481;48.796;9.210;2022-09-09T00:29:09;3.97;;;1.20;;
18702;SDS011;9481;48.796;9.210;2022-09-09T00:31:37;2.37;;;1.20;;
18702;SDS011;9481;48.796;9.210;2022-09-09T00:36:44;0.80;;;0.80;;
18702;SDS011;9481;48.796;9.210;2022-09-09T00:39:36;4.60;;;1.20;;
18702;SDS011;9481;48.796;9.210;2022-09-09T00:45:12;1.63;;;0.90;;
18702;SDS011;9481;48.796;9.210;2022-09-09T00:48:10;4.33;;;1.50;;
18702;SDS011;9481;48.796;9.210;2022-09-09T00:50:45;2.63;;;1.10;;
18702;SDS011;9481;48.796;9.210;2022-09-09T00:56:20;3.23;;;1.27;;
18702;SDS011;9481;48.796;9.210;2022-09-09T01:01:26;2.80;;;1.07;;
18702;SDS011;9481;48.796;9.210;2022-09-09T01:03:55;4.67;;;1.10;;
18702;SDS011;9481;48.796;9.210;2022-09-09T01:06:35;1.63;;;0.97;;
18702;SDS011;9481;48.796;9.210;2022-09-09T01:12:16;2.63;;;0.90;;
18702;SDS011;9481;48.796;9.210;2022-09-09T01:17:46;1.37;;;0.83;;
18702;SDS011;9481;48.796;9.210;2022-09-09T01:23:38;3.17;;;1.00;;
18702;SDS011;9481;48.796;9.210;2022-09-09T01:26:42;1.77;;;0.80;;
18702;SDS011;9481;48.796;9.210;2022-09-09T01:29:13;2.43;;;1.03;;
18702;SDS011;9481;48.796;9.210;2022-09-09T01:31:52;1.73;;;0.90;;
18702;SDS011;9481;48.796;9.210;2022-09-09T01:34:24;1.70;;;0.90;;
18702;SDS011;9481;48.796;9.210;2022-09-09T01:36:59;2.43;;;0.90;;
18702;SDS011;9481;48.796;9.210;2022-09-09T01:39:36;2.57;;;0.80;;
18702;SDS011;9481;48.796;9.210;2022-09-09T01:42:06;2.63;;;0.90;;
18702;SDS011;9481;48.796;9.210;2022-09-09T01:44:37;1.43;;;0.67;;
18702;SDS011;9481;48.796;9.210;2022-09-09T01:47:04;1.97;;;0.70;;
18702;SDS011;9481;48.796;9.210;2022-09-09T01:49:31;1.97;;;0.80;;
18702;SDS011;9481;48.796;9.210;2022-09-09T01:51:58;1.90;;;0.90;;
18702;SDS011;9481;48.796;9.210;2022-09-09T01:54:26;3.90;;;0.90;;
18702;SDS011;9481;48.796;9.210;2022-09-09T02:00:21;1.77;;;0.90;;
18702;SDS011;9481;48.796;9.210;2022-09-09T02:05:40;2.00;;;0.90;;
18702;SDS011;9481;48.796;9.210;2022-09-09T02:08:42;1.77;;;0.80;;
18702;SDS011;9481;48.796;9.210;2022-09-09T02:13:45;2.53;;;0.80;;
18702;SDS011;9481;48.796;9.210;2022-09-09T02:16:18;1.83;;;0.90;;
18702;SDS011;9481;48.796;9.210;2022-09-09T02:19:25;3.07;;;0.90;;
18702;SDS011;9481;48.796;9.210;2022-09-09T02:21:59;1.20;;;0.83;;
18702;SDS011;9481;48.796;9.210;2022-09-09T02:24:27;2.37;;;0.80;;
18702;SDS011;9481;48.796;9.210;2022-09-09T02:26:59;1.83;;;1.20;;
18702;SDS011;9481;48.796;9.210;2022-09-09T02:29:36;4.10;;;1.20;;
18702;SDS011;9481;48.796;9.210;2022-09-09T02:32:14;3.63;;;1.00;;
18702;SDS011;9481;48.796;9.210;2022-09-09T02:34:45;1.50;;;0.80;;
18702;SDS011;9481;48.796;9.210;2022-09-09T02:37:17;2.87;;;0.90;;
18702;SDS011;9481;48.796;9.210;2022-09-09T02:39:46;1.40;;;0.90;;
18702;SDS011;9481;48.796;9.210;2022-09-09T02:42:12;1.77;;;0.87;;
18702;SDS011;9481;48.796;9.210;2022-09-09T02:44:39;2.80;;;1.00;;
18702;SDS011;9481;48.796;9.210;2022-09-09T02:47:22;1.87;;;0.93;;
18702;SDS011;9481;48.796;9.210;2022-09-09T02:58:16;0.80;;;0.80;;
18702;SDS011;9481;48.796;9.210;2022-09-09T03:00:44;1.53;;;0.77;;
18702;SDS011;9481;48.796;9.210;2022-09-09T03:03:14;1.97;;;0.90;;
18702;SDS011;9481;48.796;9.210;2022-09-09T03:05:42;1.17;;;0.90;;
18702;SDS011;9481;48.796;9.210;2022-09-09T03:08:08;2.53;;;0.80;;
18702;SDS011;9481;48.796;9.210;2022-09-09T03:10:35;1.93;;;0.73;;
18702;SDS011;9481;48.796;9.210;2022-09-09T03:13:02;0.87;;;0.80;;
18702;SDS011;9481;48.796;9.210;2022-09-09T03:15:30;1.87;;;0.80;;
18702;SDS011;9481;48.796;9.210;2022-09-09T03:17:57;2.10;;;1.00;;
18702;SDS011;9481;48.796;9.210;2022-09-09T03:20:24;3.97;;;1.30;;
18702;SDS011;9481;48.796;9.210;2022-09-09T03:22:53;3.20;;;1.00;;
18702;SDS011;9481;48.796;9.210;2022-09-09T03:25:20;1.03;;;0.70;;
18702;SDS011;9481;48.796;9.210;2022-09-09T03:27:49;2.70;;;1.10;;
18702;SDS011;9481;48.796;9.210;2022-09-09T03:30:19;1.97;;;0.83;;
18702;SDS011;9481;48.796;9.210;2022-09-09T03:32:49;1.30;;;0.70;;
18702;SDS011;9481;48.796;9.210;2022-09-09T03:35:15;4.27;;;1.13;;
18702;SDS011;9481;48.796;9.210;2022-09-09T03:37:41;1.90;;;0.73;;
18702;SDS011;9481;48.796;9.210;2022-09-09T03:40:07;1.83;;;0.80;;
18702;SDS011;9481;48.796;9.210;2022-09-09T03:42:37;5.07;;;1.00;;
18702;SDS011;9481;48.796;9.210;2022-09-09T03:45:04;2.47;;;0.70;;
18702;SDS011;9481;48.796;9.210;2022-09-09T03:47:34;1.87;;;1.00;;
18702;SDS011;9481;48.796;9.210;2022-09-09T03:50:00;1.03;;;0.70;;
18702;SDS011;9481;48.796;9.210;2022-09-09T03:52:26;3.50;;;0.93;;
18702;SDS011;9481;48.796;9.210;2022-09-09T03:54:52;2.43;;;0.90;;
18702;SDS011;9481;48.796;9.210;2022-09-09T03:57:19;3.07;;;0.90;;
18702;SDS011;9481;48.796;9.210;2022-09-09T03:59:45;1.43;;;0.73;;
18702;SDS011;9481;48.796;9.210;2022-09-09T04:02:11;3.80;;;1.03;;
18702;SDS011;9481;48.796;9.210;2022-09-09T04:04:36;2.87;;;0.80;;
18702;SDS011;9481;48.796;9.210;2022-09-09T04:07:02;1.30;;;0.80;;
18702;SDS011;9481;48.796;9.210;2022-09-09T04:09:31;2.50;;;0.90;;
18702;SDS011;9481;48.796;9.210;2022-09-09T04:11:56;1.93;;;0.93;;
18702;SDS011;9481;48.796;9.210;2022-09-09T04:14:22;2.87;;;0.70;;
18702;SDS011;9481;48.796;9.210;2022-09-09T04:16:48;1.93;;;0.87;;
18702;SDS011;9481;48.796;9.210;2022-09-09T04:19:13;4.90;;;1.27;;
18702;SDS011;9481;48.796;9.210;2022-09-09T04:21:40;2.37;;;1.00;;
18702;SDS011;9481;48.796;9.210;2022-09-09T04:24:07;1.80;;;0.90;;
18702;SDS011;9481;48.796;9.210;2022-09-09T04:26:34;1.80;;;0.80;;
18702;SDS011;9481;48.796;9.210;2022-09-09T04:29:02;2.73;;;1.00;;
18702;SDS011;9481;48.796;9.210;2022-09-09T04:31:29;1.93;;;0.93;;
18702;SDS011;9481;48.796;9.210;2022-09-09T04:33:54;0.97;;;0.83;;
18702;SDS011;9481;48.796;9.210;2022-09-09T04:36:20;2.70;;;0.90;;
18702;SDS011;9481;48.796;9.210;2022-09-09T04:38:47;4.07;;;1.20;;
18702;SDS011;9481;48.796;9.210;2022-09-09T04:41:15;2.43;;;0.93;;
18702;SDS011;9481;48.796;9.210;2022-09-09T04:43:41;2.80;;;1.20;;
18702;SDS011;9481;48.796;9.210;2022-09-09T04:46:07;2.53;;;0.90;;
18702;SDS011;9481;48.796;9.210;2022-09-09T04:48:33;2.40;;;1.00;;
18702;SDS011;9481;48.796;9.210;2022-09-09T04:51:00;2.87;;;1.10;;
18702;SDS011;9481;48.796;9.210;2022-09-09T04:53:30;4.63;;;1.07;;
18702;SDS011;9481;48.796;9.210;2022-09-09T04:56:05;1.20;;;0.90;;
18702;SDS011;9481;48.796;9.210;2022-09-09T04:58:39;4.80;;;1.00;;
18702;SDS011;9481;48.796;9.210;2022-09-09T05:01:11;2.37;;;1.10;;
18702;SDS011;9481;48.796;9.210;2022-09-09T05:03:43;4.47;;;0.90;;
18702;SDS011;9481;48.796;9.210;2022-09-09T05:06:11;4.93;;;1.10;;
18702;SDS011;9481;48.796;9.210;2022-09-09T05:08:40;5.83;;;1.10;;
18702;SDS011;9481;48.796;9.210;2022-09-09T05:11:17;1.80;;;0.90;;
18702;SDS011;9481;48.796;9.210;2022-09-09T05:13:45;2.83;;;1.03;;
18702;SDS011;9481;48.796;9.210;2022-09-09T05:16:12;2.50;;;0.93;;
18702;SDS011;9481;48.796;9.210;2022-09-09T05:18:39;1.90;;;1.10;;
18702;SDS011;9481;48.796;9.210;2022-09-09T05:21:06;1.80;;;0.90;;
18702;SDS011;9481;48.796;9.210;2022-09-09T05:23:33;2.43;;;1.00;;
18702;SDS011;9481;48.796;9.210;2022-09-09T05:25:59;3.83;;;1.00;;
18702;SDS011;9481;48.796;9.210;2022-09-09T05:28:25;2.23;;;1.30;;
18702;SDS011;9481;48.796;9.210;2022-09-09T05:31:03;2.77;;;0.90;;
18702;SDS011;9481;48.796;9.210;2022-09-09T05:33:33;2.17;;;0.80;;
18702;SDS011;9481;48.796;9.210;2022-09-09T05:36:01;1.43;;;0.90;;
18702;SDS011;9481;48.796;9.210;2022-09-09T05:38:31;1.90;;;1.00;;
18702;SDS011;9481;48.796;9.210;2022-09-09T05:40:58;1.80;;;0.90;;
18702;SDS011;9481;48.796;9.210;2022-09-09T05:43:25;3.20;;;1.20;;
18702;SDS011;9481;48.796;9.210;2022-09-09T05:45:59;2.27;;;1.03;;
18702;SDS011;9481;48.796;9.210;2022-09-09T05:48:30;2.47;;;0.93;;
18702;SDS011;9481;48.796;9.210;2022-09-09T05:50:59;1.20;;;0.87;;
18702;SDS011;9481;48.796;9.210;2022-09-09T05:53:27;2.20;;;1.00;;
18702;SDS011;9481;48.796;9.210;2022-09-09T05:56:05;1.80;;;0.90;;
18702;SDS011;9481;48.796;9.210;2022-09-09T05:58:37;4.17;;;0.90;;
18702;SDS011;9481;48.796;9.210;2022-09-09T06:01:07;1.40;;;0.90;;
18702;SDS011;9481;48.796;9.210;2022-09-09T06:03:36;1.87;;;0.90;;
18702;SDS011;9481;48.796;9.210;2022-09-09T06:06:05;2.93;;;1.03;;
18702;SDS011;9481;48.796;9.210;2022-09-09T06:08:34;1.00;;;0.90;;
18702;SDS011;9481;48.796;9.210;2022-09-09T06:11:09;2.87;;;1.07;;
18702;SDS011;9481;48.796;9.210;2022-09-09T06:13:39;3.37;;;1.00;;
18702;SDS011;9481;48.796;9.210;2022-09-09T06:16:06;6.13;;;1.40;;
18702;SDS011;9481;48.796;9.210;2022-09-09T06:18:42;2.40;;;1.00;;
18702;SDS011;9481;48.796;9.210;2022-09-09T06:21:14;2.27;;;1.13;;
18702;SDS011;9481;48.796;9.210;2022-09-09T06:23:45;2.50;;;0.90;;
18702;SDS011;9481;48.796;9.210;2022-09-09T06:26:17;2.13;;;1.00;;
18702;SDS011;9481;48.796;9.210;2022-09-09T06:28:44;1.30;;;0.80;;
18702;SDS011;9481;48.796;9.210;2022-09-09T06:31:12;3.37;;;1.13;;
18702;SDS011;9481;48.796;9.210;2022-09-09T06:33:47;1.67;;;0.97;;
18702;SDS011;9481;48.796;9.210;2022-09-09T06:36:16;2.87;;;1.00;;
18702;SDS011;9481;48.796;9.210;2022-09-09T06:38:47;3.37;;;0.80;;
18702;SDS011;9481;48.796;9.210;2022-09-09T06:41:15;5.50;;;1.03;;
18702;SDS011;9481;48.796;9.210;2022-09-09T06:43:43;2.07;;;1.00;;
18702;SDS011;9481;48.796;9.210;2022-09-09T06:46:11;2.17;;;0.87;;
18702;SDS011;9481;48.796;9.210;2022-09-09T06:48:40;2.40;;;1.00;;
18702;SDS011;9481;48.796;9.210;2022-09-09T06:51:29;2.33;;;1.00;;
18702;SDS011;9481;48.796;9.210;2022-09-09T06:53:59;3.93;;;0.83;;
18702;SDS011;9481;48.796;9.210;2022-09-09T06:58:56;1.03;;;0.90;;
18702;SDS011;9481;48.796;9.210;2022-09-09T07:01:25;1.43;;;0.83;;
18702;SDS011;9481;48.796;9.210;2022-09-09T07:03:54;5.07;;;1.10;;
18702;SDS011;9481;48.796;9.210;2022-09-09T07:06:25;1.70;;;1.20;;
18702;SDS011;9481;48.796;9.210;2022-09-09T07:08:57;2.87;;;0.87;;
18702;SDS011;9481;48.796;9.210;2022-09-09T07:11:27;1.83;;;0.80;;
18702;SDS011;9481;48.796;9.210;2022-09-09T07:13:56;1.67;;;0.93;;
18702;SDS011;9481;48.796;9.210;2022-09-09T07:16:24;1.80;;;0.80;;
18702;SDS011;9481;48.796;9.210;2022-09-09T07:18:52;2.03;;;1.00;;
18702;SDS011;9481;48.796;9.210;2022-09-09T07:21:22;1.17;;;0.70;;
18702;SDS011;9481;48.796;9.210;2022-09-09T07:23:51;5.20;;;0.80;;
18702;SDS011;9481;48.796;9.210;2022-09-09T07:26:18;3.03;;;0.80;;
18702;SDS011;9481;48.796;9.210;2022-09-09T07:28:47;1.13;;;0.83;;
18702;SDS011;9481;48.796;9.210;2022-09-09T07:31:15;2.30;;;0.80;;
18702;SDS011;9481;48.796;9.210;2022-09-09T07:33:47;1.87;;;0.90;;
18702;SDS011;9481;48.796;9.210;2022-09-09T07:36:23;1.50;;;0.87;;
18702;SDS011;9481;48.796;9.210;2022-09-09T07:38:55;2.87;;;0.87;;
18702;SDS011;9481;48.796;9.210;2022-09-09T07:44:23;2.70;;;1.20;;
18702;SDS011;9481;48.796;9.210;2022-09-09T07:46:50;2.23;;;1.17;;
18702;SDS011;9481;48.796;9.210;2022-09-09T07:49:15;3.87;;;1.40;;
18702;SDS011;9481;48.796;9.210;2022-09-09T07:51:44;0.80;;;0.70;;
18702;SDS011;9481;48.796;9.210;2022-09-09T07:54:13;2.03;;;1.03;;
18702;SDS011;9481;48.796;9.210;2022-09-09T07:56:41;1.70;;;0.80;;
18702;SDS011;9481;48.796;9.210;2022-09-09T07:59:07;1.50;;;0.80;;
18702;SDS011;9481;48.796;9.210;2022-09-09T08:01:35;2.03;;;1.30;;
18702;SDS011;9481;48.796;9.210;2022-09-09T08:04:11;3.10;;;0.90;;
18702;SDS011;9481;48.796;9.210;2022-09-09T08:06:41;2.13;;;0.80;;
18702;SDS011;9481;48.796;9.210;2022-09-09T08:09:19;3.37;;;1.13;;
18702;SDS011;9481;48.796;9.210;2022-09-09T08:11:45;1.07;;;0.70;;
18702;SDS011;9481;48.796;9.210;2022-09-09T08:14:12;7.20;;;1.20;;
18702;SDS011;9481;48.796;9.210;2022-09-09T08:16:40;1.87;;;0.77;;
18702;SDS011;9481;48.796;9.210;2022-09-09T08:19:09;3.80;;;1.00;;
18702;SDS011;9481;48.796;9.210;2022-09-09T08:21:35;2.57;;;1.00;;
18702;SDS011;9481;48.796;9.210;2022-09-09T08:24:06;2.97;;;0.90;;
18702;SDS011;9481;48.796;9.210;2022-09-09T08:26:36;2.40;;;0.90;;
18702;SDS011;9481;48.796;9.210;2022-09-09T08:29:08;1.77;;;0.80;;
18702;SDS011;9481;48.796;9.210;2022-09-09T08:31:36;3.27;;;1.00;;
18702;SDS011;9481;48.796;9.210;2022-09-09T08:34:08;3.67;;;1.00;;
18702;SDS011;9481;48.796;9.210;2022-09-09T08:36:36;2.37;;;0.80;;
18702;SDS011;9481;48.796;9.210;2022-09-09T08:39:08;3.23;;;0.83;;
18702;SDS011;9481;48.796;9.210;2022-09-09T08:58:20;1.93;;;0.83;;
18702;SDS011;9481;48.796;9.210;2022-09-09T09:12:58;5.50;;;0.90;;
18702;SDS011;9481;48.796;9.210;2022-09-09T09:15:27;4.13;;;1.03;;
18702;SDS011;9481;48.796;9.210;2022-09-09T09:18:01;2.67;;;0.83;;
18702;SDS011;9481;48.796;9.210;2022-09-09T09:20:36;5.30;;;0.90;;
18702;SDS011;9481;48.796;9.210;2022-09-09T09:23:39;2.60;;;0.80;;
18702;SDS011;9481;48.796;9.210;2022-09-09T09:26:25;2.67;;;0.97;;
18702;SDS011;9481;48.796;9.210;2022-09-09T09:29:01;4.10;;;0.67;;
18702;SDS011;9481;48.796;9.210;2022-09-09T09:31:37;3.20;;;0.87;;
18702;SDS011;9481;48.796;9.210;2022-09-09T09:34:02;2.70;;;0.90;;
18702;SDS011;9481;48.796;9.210;2022-09-09T09:36:38;3.00;;;0.90;;
18702;SDS011;9481;48.796;9.210;2022-09-09T09:39:21;4.73;;;0.90;;
18702;SDS011;9481;48.796;9.210;2022-09-09T09:41:56;1.87;;;0.50;;
18702;SDS011;9481;48.796;9.210;2022-09-09T09:46:51;2.37;;;0.80;;
18702;SDS011;9481;48.796;9.210;2022-09-09T09:49:18;0.83;;;0.57;;
18702;SDS011;9481;48.796;9.210;2022-09-09T09:51:43;2.97;;;0.60;;
18702;SDS011;9481;48.796;9.210;2022-09-09T09:56:38;1.80;;;0.70;;
18702;SDS011;9481;48.796;9.210;2022-09-09T09:59:05;1.17;;;0.80;;
18702;SDS011;9481;48.796;9.210;2022-09-09T10:01:44;2.40;;;0.70;;
18702;SDS011;9481;48.796;9.210;2022-09-09T10:04:22;2.83;;;0.50;;
18702;SDS011;9481;48.796;9.210;2022-09-09T10:06:48;0.70;;;0.60;;
18702;SDS011;9481;48.796;9.210;2022-09-09T10:09:28;3.00;;;1.13;;
18702;SDS011;9481;48.796;9.210;2022-09-09T10:12:17;1.73;;;0.83;;
18702;SDS011;9481;48.796;9.210;2022-09-09T10:15:07;1.90;;;1.00;;
18702;SDS011;9481;48.796;9.210;2022-09-09T10:21:46;1.67;;;0.80;;
18702;SDS011;9481;48.796;9.210;2022-09-09T10:24:36;1.60;;;0.80;;
18702;SDS011;9481;48.796;9.210;2022-09-09T10:46:58;2.70;;;0.80;;
18702;SDS011;9481;48.796;9.210;2022-09-09T10:50:13;1.63;;;0.80;;
18702;SDS011;9481;48.796;9.210;2022-09-09T10:56:16;1.40;;;0.80;;
18702;SDS011;9481;48.796;9.210;2022-09-09T10:58:48;2.50;;;0.93;;
18702;SDS011;9481;48.796;9.210;2022-09-09T11:01:42;6.17;;;1.00;;
18702;SDS011;9481;48.796;9.210;2022-09-09T11:04:18;2.57;;;0.97;;
18702;SDS011;9481;48.796;9.210;2022-09-09T11:07:08;3.87;;;1.23;;
18702;SDS011;9481;48.796;9.210;2022-09-09T11:09:45;2.30;;;1.10;;
18702;SDS011;9481;48.796;9.210;2022-09-09T11:12:21;1.07;;;0.90;;
18702;SDS011;9481;48.796;9.210;2022-09-09T11:17:46;1.60;;;1.00;;
18702;SDS011;9481;48.796;9.210;2022-09-09T11:20:19;1.53;;;0.83;;
18702;SDS011;9481;48.796;9.210;2022-09-09T11:22:53;2.97;;;0.97;;
18702;SDS011;9481;48.796;9.210;2022-09-09T11:25:32;2.20;;;0.80;;
18702;SDS011;9481;48.796;9.210;2022-09-09T11:31:06;1.80;;;1.07;;
18702;SDS011;9481;48.796;9.210;2022-09-09T11:37:39;2.00;;;0.83;;
18702;SDS011;9481;48.796;9.210;2022-09-09T11:40:27;2.37;;;0.70;;
18702;SDS011;9481;48.796;9.210;2022-09-09T11:45:38;0.67;;;0.60;;
18702;SDS011;9481;48.796;9.210;2022-09-09T11:50:57;1.10;;;0.60;;
18702;SDS011;9481;48.796;9.210;2022-09-09T11:56:43;0.77;;;0.60;;
18702;SDS011;9481;48.796;9.210;2022-09-09T12:01:59;1.70;;;0.40;;
18702;SDS011;9481;48.796;9.210;2022-09-09T12:07:35;1.07;;;0.40;;
18702;SDS011;9481;48.796;9.210;2022-09-09T12:12:46;0.40;;;0.30;;
18702;SDS011;9481;48.796;9.210;2022-09-09T12:17:44;0.37;;;0.30;;
18702;SDS011;9481;48.796;9.210;2022-09-09T12:20:23;0.33;;;0.30;;
18702;SDS011;9481;48.796;9.210;2022-09-09T12:26:23;0.80;;;0.30;;
18702;SDS011;9481;48.796;9.210;2022-09-09T12:34:38;1.47;;;0.43;;
18702;SDS011;9481;48.796;9.210;2022-09-09T12:37:24;0.97;;;0.30;;
18702;SDS011;9481;48.796;9.210;2022-09-09T12:40:21;3.07;;;0.50;;
18702;SDS011;9481;48.796;9.210;2022-09-09T12:43:00;0.80;;;0.40;;
18702;SDS011;9481;48.796;9.210;2022-09-09T12:45:48;1.20;;;0.30;;
18702;SDS011;9481;48.796;9.210;2022-09-09T12:48:21;3.00;;;0.57;;
18702;SDS011;9481;48.796;9.210;2022-09-09T12:51:15;1.13;;;0.40;;
18702;SDS011;9481;48.796;9.210;2022-09-09T12:53:53;1.40;;;0.60;;
18702;SDS011;9481;48.796;9.210;2022-09-09T12:56:24;1.23;;;0.63;;
18702;SDS011;9481;48.796;9.210;2022-09-09T12:58:55;0.97;;;0.40;;
18702;SDS011;9481;48.796;9.210;2022-09-09T13:01:30;2.43;;;0.53;;
18702;SDS011;9481;48.796;9.210;2022-09-09T13:03:58;1.73;;;0.40;;
18702;SDS011;9481;48.796;9.210;2022-09-09T13:06:32;1.33;;;0.50;;
18702;SDS011;9481;48.796;9.210;2022-09-09T13:08:59;1.10;;;0.40;;
18702;SDS011;9481;48.796;9.210;2022-09-09T13:14:03;1.23;;;0.70;;
18702;SDS011;9481;48.796;9.210;2022-09-09T13:16:34;2.63;;;0.60;;
18702;SDS011;9481;48.796;9.210;2022-09-09T13:19:01;1.50;;;0.57;;
18702;SDS011;9481;48.796;9.210;2022-09-09T13:21:38;2.00;;;0.60;;
18702;SDS011;9481;48.796;9.210;2022-09-09T13:24:06;0.93;;;0.50;;
18702;SDS011;9481;48.796;9.210;2022-09-09T13:26:59;2.10;;;0.60;;
18702;SDS011;9481;48.796;9.210;2022-09-09T13:29:53;1.07;;;0.60;;
18702;SDS011;9481;48.796;9.210;2022-09-09T13:32:22;1.27;;;0.50;;
18702;SDS011;9481;48.796;9.210;2022-09-09T13:34:55;1.03;;;0.50;;
18702;SDS011;9481;48.796;9.210;2022-09-09T13:37:30;0.90;;;0.50;;
18702;SDS011;9481;48.796;9.210;2022-09-09T13:40:03;0.70;;;0.33;;
18702;SDS011;9481;48.796;9.210;2022-09-09T13:42:32;3.40;;;0.60;;
18702;SDS011;9481;48.796;9.210;2022-09-09T13:45:04;1.57;;;0.40;;
18702;SDS011;9481;48.796;9.210;2022-09-09T13:47:34;1.37;;;0.67;;
18702;SDS011;9481;48.796;9.210;2022-09-09T13:52:52;2.20;;;0.43;;
18702;SDS011;9481;48.796;9.210;2022-09-09T13:55:23;1.40;;;0.70;;
18702;SDS011;9481;48.796;9.210;2022-09-09T13:57:59;2.40;;;0.50;;
18702;SDS011;9481;48.796;9.210;2022-09-09T14:00:30;1.20;;;0.50;;
18702;SDS011;9481;48.796;9.210;2022-09-09T14:02:59;1.23;;;0.40;;
18702;SDS011;9481;48.796;9.210;2022-09-09T14:05:27;0.67;;;0.30;;
18702;SDS011;9481;48.796;9.210;2022-09-09T14:07:54;0.80;;;0.50;;
18702;SDS011;9481;48.796;9.210;2022-09-09T14:10:20;1.10;;;0.43;;
18702;SDS011;9481;48.796;9.210;2022-09-09T14:12:47;1.40;;;0.67;;
18702;SDS011;9481;48.796;9.210;2022-09-09T14:15:13;0.70;;;0.40;;
18702;SDS011;9481;48.796;9.210;2022-09-09T14:17:39;0.90;;;0.50;;
18702;SDS011;9481;48.796;9.210;2022-09-09T14:20:05;1.87;;;0.70;;
18702;SDS011;9481;48.796;9.210;2022-09-09T14:22:34;2.67;;;0.53;;
18702;SDS011;9481;48.796;9.210;2022-09-09T14:25:01;1.10;;;0.50;;
18702;SDS011;9481;48.796;9.210;2022-09-09T14:27:28;2.23;;;0.60;;
18702;SDS011;9481;48.796;9.210;2022-09-09T14:29:55;2.23;;;0.60;;
18702;SDS011;9481;48.796;9.210;2022-09-09T14:32:21;1.60;;;0.53;;
18702;SDS011;9481;48.796;9.210;2022-09-09T14:34:47;1.33;;;0.40;;
18702;SDS011;9481;48.796;9.210;2022-09-09T14:37:14;0.97;;;0.40;;
18702;SDS011;9481;48.796;9.210;2022-09-09T14:39:41;2.70;;;0.80;;
18702;SDS011;9481;48.796;9.210;2022-09-09T14:42:09;0.70;;;0.40;;
18702;SDS011;9481;48.796;9.210;2022-09-09T14:44:39;1.03;;;0.53;;
18702;SDS011;9481;48.796;9.210;2022-09-09T14:47:05;1.43;;;0.50;;
18702;SDS011;9481;48.796;9.210;2022-09-09T14:49:32;0.57;;;0.30;;
18702;SDS011;9481;48.796;9.210;2022-09-09T14:51:59;1.33;;;0.53;;
18702;SDS011;9481;48.796;9.210;2022-09-09T14:54:25;1.23;;;0.40;;
18702;SDS011;9481;48.796;9.210;2022-09-09T14:56:51;1.97;;;0.63;;
18702;SDS011;9481;48.796;9.210;2022-09-09T14:59:17;1.13;;;0.57;;
18702;SDS011;9481;48.796;9.210;2022-09-09T15:01:42;1.10;;;0.30;;
18702;SDS011;9481;48.796;9.210;2022-09-09T15:04:10;0.30;;;0.30;;
18702;SDS011;9481;48.796;9.210;2022-09-09T15:06:39;1.73;;;0.47;;
18702;SDS011;9481;48.796;9.210;2022-09-09T15:09:07;0.43;;;0.40;;
18702;SDS011;9481;48.796;9.210;2022-09-09T15:11:34;2.27;;;0.63;;
18702;SDS011;9481;48.796;9.210;2022-09-09T15:14:05;2.47;;;0.60;;
18702;SDS011;9481;48.796;9.210;2022-09-09T15:16:33;1.77;;;0.50;;
18702;SDS011;9481;48.796;9.210;2022-09-09T15:18:59;3.20;;;0.40;;
18702;SDS011;9481;48.796;9.210;2022-09-09T15:21:28;2.20;;;0.60;;
18702;SDS011;9481;48.796;9.210;2022-09-09T15:23:57;0.43;;;0.40;;
18702;SDS011;9481;48.796;9.210;2022-09-09T15:26:24;0.77;;;0.50;;
18702;SDS011;9481;48.796;9.210;2022-09-09T15:28:51;2.43;;;0.80;;
18702;SDS011;9481;48.796;9.210;2022-09-09T15:31:20;2.20;;;0.50;;
18702;SDS011;9481;48.796;9.210;2022-09-09T15:33:53;2.13;;;0.60;;
18702;SDS011;9481;48.796;9.210;2022-09-09T15:36:28;1.57;;;0.50;;
18702;SDS011;9481;48.796;9.210;2022-09-09T15:38:57;0.70;;;0.50;;
18702;SDS011;9481;48.796;9.210;2022-09-09T15:41:24;0.73;;;0.50;;
18702;SDS011;9481;48.796;9.210;2022-09-09T15:43:52;1.07;;;0.40;;
18702;SDS011;9481;48.796;9.210;2022-09-09T15:46:25;2.73;;;0.73;;
18702;SDS011;9481;48.796;9.210;2022-09-09T15:49:09;4.47;;;0.70;;
18702;SDS011;9481;48.796;9.210;2022-09-09T15:51:52;0.77;;;0.50;;
18702;SDS011;9481;48.796;9.210;2022-09-09T15:54:21;1.00;;;0.50;;
18702;SDS011;9481;48.796;9.210;2022-09-09T15:56:52;1.80;;;0.50;;
18702;SDS011;9481;48.796;9.210;2022-09-09T15:59:21;2.10;;;0.50;;
18702;SDS011;9481;48.796;9.210;2022-09-09T16:01:48;1.03;;;0.50;;
18702;SDS011;9481;48.796;9.210;2022-09-09T16:04:16;1.47;;;0.60;;
18702;SDS011;9481;48.796;9.210;2022-09-09T16:06:48;0.90;;;0.47;;
18702;SDS011;9481;48.796;9.210;2022-09-09T16:09:16;1.33;;;0.40;;
18702;SDS011;9481;48.796;9.210;2022-09-09T16:11:42;1.43;;;0.70;;
18702;SDS011;9481;48.796;9.210;2022-09-09T16:14:07;0.97;;;0.60;;
18702;SDS011;9481;48.796;9.210;2022-09-09T16:16:33;0.97;;;0.60;;
18702;SDS011;9481;48.796;9.210;2022-09-09T16:19:02;1.37;;;0.50;;
18702;SDS011;9481;48.796;9.210;2022-09-09T16:21:35;1.77;;;0.80;;
18702;SDS011;9481;48.796;9.210;2022-09-09T16:24:12;1.43;;;0.60;;
18702;SDS011;9481;48.796;9.210;2022-09-09T16:26:43;1.87;;;0.70;;
18702;SDS011;9481;48.796;9.210;2022-09-09T16:29:12;1.03;;;0.50;;
18702;SDS011;9481;48.796;9.210;2022-09-09T16:31:40;1.40;;;0.60;;
18702;SDS011;9481;48.796;9.210;2022-09-09T16:34:07;1.93;;;0.50;;
18702;SDS011;9481;48.796;9.210;2022-09-09T16:36:34;0.80;;;0.60;;
18702;SDS011;9481;48.796;9.210;2022-09-09T16:39:05;1.47;;;0.70;;
18702;SDS011;9481;48.796;9.210;2022-09-09T16:41:34;1.10;;;0.63;;
18702;SDS011;9481;48.796;9.210;2022-09-09T16:44:05;0.60;;;0.60;;
18702;SDS011;9481;48.796;9.210;2022-09-09T16:46:37;1.57;;;0.60;;
18702;SDS011;9481;48.796;9.210;2022-09-09T16:49:07;1.33;;;0.70;;
18702;SDS011;9481;48.796;9.210;2022-09-09T16:51:36;1.33;;;0.50;;
18702;SDS011;9481;48.796;9.210;2022-09-09T16:54:13;1.50;;;0.80;;
18702;SDS011;9481;48.796;9.210;2022-09-09T16:56:42;1.23;;;0.67;;
18702;SDS011;9481;48.796;9.210;2022-09-09T16:59:12;0.60;;;0.30;;
18702;SDS011;9481;48.796;9.210;2022-09-09T17:01:41;0.97;;;0.33;;
18702;SDS011;9481;48.796;9.210;2022-09-09T17:04:13;1.47;;;0.80;;
18702;SDS011;9481;48.796;9.210;2022-09-09T17:06:45;2.23;;;0.60;;
18702;SDS011;9481;48.796;9.210;2022-09-09T17:09:17;1.10;;;0.30;;
18702;SDS011;9481;48.796;9.210;2022-09-09T17:11:45;0.60;;;0.30;;
18702;SDS011;9481;48.796;9.210;2022-09-09T17:14:15;0.40;;;0.40;;
18702;SDS011;9481;48.796;9.210;2022-09-09T17:16:43;1.90;;;0.60;;
18702;SDS011;9481;48.796;9.210;2022-09-09T17:19:09;0.70;;;0.40;;
18702;SDS011;9481;48.796;9.210;2022-09-09T17:21:36;1.13;;;0.40;;
18702;SDS011;9481;48.796;9.210;2022-09-09T17:24:03;0.50;;;0.40;;
18702;SDS011;9481;48.796;9.210;2022-09-09T17:26:30;4.40;;;0.40;;
18702;SDS011;9481;48.796;9.210;2022-09-09T17:28:59;0.60;;;0.40;;
18702;SDS011;9481;48.796;9.210;2022-09-09T17:31:26;0.73;;;0.73;;
18702;SDS011;9481;48.796;9.210;2022-09-09T17:33:54;1.07;;;0.57;;
18702;SDS011;9481;48.796;9.210;2022-09-09T17:36:21;1.30;;;0.50;;
18702;SDS011;9481;48.796;9.210;2022-09-09T17:38:53;0.43;;;0.30;;
18702;SDS011;9481;48.796;9.210;2022-09-09T17:41:23;0.60;;;0.50;;
18702;SDS011;9481;48.796;9.210;2022-09-09T17:43:52;0.70;;;0.40;;
18702;SDS011;9481;48.796;9.210;2022-09-09T17:46:32;0.67;;;0.50;;
18702;SDS011;9481;48.796;9.210;2022-09-09T17:49:02;1.07;;;0.60;;
18702;SDS011;9481;48.796;9.210;2022-09-09T17:51:33;1.07;;;0.50;;
18702;SDS011;9481;48.796;9.210;2022-09-09T17:54:02;2.70;;;0.93;;
18702;SDS011;9481;48.796;9.210;2022-09-09T17:56:34;1.33;;;0.97;;
18702;SDS011;9481;48.796;9.210;2022-09-09T17:59:04;1.50;;;1.03;;
18702;SDS011;9481;48.796;9.210;2022-09-09T18:01:32;2.00;;;0.87;;
18702;SDS011;9481;48.796;9.210;2022-09-09T18:04:03;0.67;;;0.67;;
18702;SDS011;9481;48.796;9.210;2022-09-09T18:06:32;0.83;;;0.57;;
18702;SDS011;9481;48.796;9.210;2022-09-09T18:09:05;0.67;;;0.50;;
18702;SDS011;9481;48.796;9.210;2022-09-09T18:11:35;1.90;;;0.67;;